This is the latest recevied weather packets stored in our database for station/object VA7SHG-1. If no packets are shown the sender has not sent any weather packets the latest 10 day(s).
| Time | Temp. | Humidity | Pressure | Rain* | Wind** | Luminosity | Snow |
|---|---|---|---|---|---|---|---|
| 1777839915 | 27.22° C | 30% | 1013 hPa | 0 mm | - | 966 W/m² | - |
| 1777838716 | 27.22° C | 30% | 1013.3 hPa | 0 mm | - | 968 W/m² | - |
| 1777838116 | 27.78° C | 28% | 1013.4 hPa | 0 mm | - | 984 W/m² | - |
| 1777835717 | 26.67° C | 30% | 1013.8 hPa | 0 mm | - | 956 W/m² | - |
| 1777833915 | 25.56° C | 30% | 1014.2 hPa | 0 mm | - | 926 W/m² | - |
| 1777831517 | 23.89° C | 35% | 1014.6 hPa | 0 mm | - | 860 W/m² | - |
| 1777826716 | 21.11° C | 41% | 1015.6 hPa | 0 mm | - | 650 W/m² | - |
| 1777824348 | 19.44° C | 43% | 1016 hPa | 0 mm | - | 516 W/m² | - |
| 1777821927 | 18.89° C | 45% | 1016.2 hPa | 0 mm | - | 381 W/m² | - |
| 1777821318 | 18.89° C | 45% | 1016.2 hPa | 0 mm | - | 347 W/m² | - |
| 1777820728 | 18.89° C | 46% | 1016.2 hPa | 0 mm | - | 301 W/m² | - |
| 1777818327 | 16.11° C | 56% | 1016.2 hPa | 0 mm | - | 163 W/m² | - |
| 1777817128 | 15° C | 62% | 1016 hPa | 0 mm | - | 108 W/m² | - |
| 1777814135 | 12.78° C | 69% | 1015.9 hPa | 0 mm | - | 26 W/m² | - |
| 1777812919 | 13.33° C | 65% | 1015.8 hPa | 0 mm | - | 10 W/m² | - |
| 1777808727 | 13.33° C | 67% | 1016 hPa | 0 mm | - | 0 W/m² | - |
| 1777808120 | 13.33° C | 68% | 1016.1 hPa | 0 mm | - | 0 W/m² | - |
| 1777807527 | 13.89° C | 66% | 1016 hPa | 0 mm | - | 0 W/m² | - |
| 1777806919 | 14.44° C | 63% | 1016 hPa | 0 mm | - | 0 W/m² | - |
| 1777799719 | 15.56° C | 65% | 1015.8 hPa | 0 mm | - | 0 W/m² | - |
| 1777797928 | 16.67° C | 59% | 1015.8 hPa | 0 mm | - | 0 W/m² | - |
| 1777795527 | 16.67° C | 59% | 1015.8 hPa | 0 mm | - | 0 W/m² | - |
| 1777792539 | 16.67° C | 60% | 1015.7 hPa | 0 mm | - | 0 W/m² | - |
| 1777782327 | 20° C | 57% | 1014.7 hPa | 0 mm | - | 0 W/m² | - |
| 1777775721 | 25° C | 41% | 1013.7 hPa | 0 mm | - | 46 W/m² | - |
* Rain latest hour (hover to see other rain measurements)
** Current wind speed in m/s (hover to see current wind gust speed)